RYR228K EGPH-ESGG
Flight info
| Callsign | RYR228K |
|---|---|
| Flight time | 1h 31m |
| Altitude | 37000 |
| Route | GRICE P600 ASNUD DCT ALOTI DCT AMSEV DCT KUVUS N607 MAKUR |
| Aircraft | B738/M-SDE3FGILRWY/SB1 |
Departure
| Time | 2026-04-26 18:35 |
|---|---|
| Airport | Edinburgh Airport (EGPH) |
Arrival
| Time | 2026-04-26 20:07 |
|---|---|
| Airport | Göteborg Landvetter Airport (ESGG) |
| Time | Latitude | Longitude | Altitude | Speed | Heading |
|---|---|---|---|---|---|
| 2026-04-26 17:44 | 55.94752 | -3.35486 | 111 ft | 0 kts | 208° |
| 2026-04-26 18:24 | 55.94753 | -3.35486 | 113 ft | 1 kts | 208° |
| 2026-04-26 18:24 | 55.94767 | -3.35472 | 111 ft | 3 kts | 208° |
| 2026-04-26 18:24 | 55.94783 | -3.35455 | 111 ft | 3 kts | 223° |
| 2026-04-26 18:24 | 55.94793 | -3.35430 | 114 ft | 3 kts | 266° |
| 2026-04-26 18:25 | 55.94791 | -3.35398 | 115 ft | 3 kts | 296° |
| 2026-04-26 18:25 | 55.94787 | -3.35384 | 115 ft | 0 kts | 298° |
| 2026-04-26 18:28 | 55.94791 | -3.35397 | 115 ft | 4 kts | 299° |
| 2026-04-26 18:28 | 55.94815 | -3.35477 | 115 ft | 11 kts | 298° |
| 2026-04-26 18:29 | 55.94860 | -3.35623 | 114 ft | 14 kts | 299° |
| 2026-04-26 18:29 | 55.94905 | -3.35770 | 112 ft | 13 kts | 298° |
| 2026-04-26 18:29 | 55.94964 | -3.35860 | 114 ft | 11 kts | 355° |
| 2026-04-26 18:29 | 55.95036 | -3.35835 | 115 ft | 11 kts | 342° |
| 2026-04-26 18:30 | 55.95080 | -3.35947 | 113 ft | 12 kts | 298° |
| 2026-04-26 18:30 | 55.95114 | -3.36107 | 111 ft | 15 kts | 287° |
| 2026-04-26 18:30 | 55.95132 | -3.36291 | 115 ft | 15 kts | 247° |
| 2026-04-26 18:30 | 55.95071 | -3.36472 | 115 ft | 19 kts | 239° |
| 2026-04-26 18:31 | 55.94994 | -3.36697 | 113 ft | 23 kts | 239° |
| 2026-04-26 18:31 | 55.94905 | -3.36953 | 113 ft | 24 kts | 239° |
| 2026-04-26 18:31 | 55.94823 | -3.37201 | 115 ft | 23 kts | 240° |
| 2026-04-26 18:31 | 55.94742 | -3.37438 | 111 ft | 22 kts | 239° |
| 2026-04-26 18:32 | 55.94666 | -3.37667 | 113 ft | 21 kts | 238° |
| 2026-04-26 18:32 | 55.94590 | -3.37891 | 113 ft | 21 kts | 239° |
| 2026-04-26 18:32 | 55.94515 | -3.38109 | 114 ft | 20 kts | 238° |
| 2026-04-26 18:32 | 55.94443 | -3.38320 | 114 ft | 20 kts | 238° |
| 2026-04-26 18:33 | 55.94374 | -3.38524 | 112 ft | 19 kts | 239° |
| 2026-04-26 18:33 | 55.94310 | -3.38717 | 114 ft | 14 kts | 238° |
| 2026-04-26 18:33 | 55.94285 | -3.38853 | 115 ft | 11 kts | 300° |
| 2026-04-26 18:33 | 55.94344 | -3.38929 | 114 ft | 10 kts | 329° |
| 2026-04-26 18:34 | 55.94395 | -3.38982 | 113 ft | 5 kts | 330° |
| 2026-04-26 18:34 | 55.94421 | -3.38956 | 110 ft | 5 kts | 57° |
| 2026-04-26 18:34 | 55.94450 | -3.38870 | 111 ft | 20 kts | 58° |
| 2026-04-26 18:34 | 55.94654 | -3.38266 | 113 ft | 92 kts | 59° |
| 2026-04-26 18:35 | 55.95097 | -3.36960 | 111 ft | 151 kts | 59° |
| 2026-04-26 18:35 | 55.95678 | -3.35209 | 555 ft | 165 kts | 59° |
| 2026-04-26 18:35 | 55.96334 | -3.33547 | 1341 ft | 167 kts | 43° |
| 2026-04-26 18:35 | 55.97223 | -3.32095 | 1961 ft | 175 kts | 38° |
| 2026-04-26 18:36 | 55.98150 | -3.30665 | 2735 ft | 177 kts | 38° |
| 2026-04-26 18:36 | 55.99089 | -3.29216 | 3446 ft | 181 kts | 36° |
| 2026-04-26 18:36 | 56.00200 | -3.27926 | 3799 ft | 208 kts | 24° |
| 2026-04-26 18:36 | 56.01616 | -3.27028 | 4143 ft | 222 kts | 8° |
| 2026-04-26 18:37 | 56.03201 | -3.26873 | 4448 ft | 240 kts | 350° |
| 2026-04-26 18:37 | 56.04859 | -3.27767 | 4756 ft | 258 kts | 329° |
| 2026-04-26 18:37 | 56.06271 | -3.29770 | 5471 ft | 261 kts | 307° |
| 2026-04-26 18:37 | 56.07165 | -3.32570 | 6315 ft | 260 kts | 287° |
| 2026-04-26 18:38 | 56.07600 | -3.35711 | 7143 ft | 261 kts | 279° |
| 2026-04-26 18:38 | 56.07955 | -3.38921 | 7941 ft | 264 kts | 280° |
| 2026-04-26 18:38 | 56.08349 | -3.42148 | 8756 ft | 267 kts | 281° |
| 2026-04-26 18:38 | 56.08786 | -3.45392 | 9566 ft | 270 kts | 282° |
| 2026-04-26 18:39 | 56.09241 | -3.48626 | 10347 ft | 273 kts | 282° |
| 2026-04-26 18:39 | 56.09724 | -3.52011 | 10703 ft | 292 kts | 282° |
| 2026-04-26 18:39 | 56.10394 | -3.55594 | 10883 ft | 317 kts | 295° |
| 2026-04-26 18:39 | 56.11509 | -3.59086 | 11396 ft | 327 kts | 298° |
| 2026-04-26 18:40 | 56.12683 | -3.62604 | 12128 ft | 331 kts | 302° |
| 2026-04-26 18:40 | 56.14350 | -3.65496 | 12892 ft | 340 kts | 324° |
| 2026-04-26 18:40 | 56.16537 | -3.67204 | 13687 ft | 350 kts | 345° |
| 2026-04-26 18:40 | 56.18996 | -3.67316 | 14415 ft | 361 kts | 5° |
| 2026-04-26 18:41 | 56.21440 | -3.66130 | 15153 ft | 369 kts | 21° |
| 2026-04-26 18:41 | 56.23629 | -3.63749 | 15859 ft | 377 kts | 32° |
| 2026-04-26 18:41 | 56.25758 | -3.60944 | 16567 ft | 382 kts | 33° |
| 2026-04-26 18:41 | 56.27909 | -3.58059 | 17195 ft | 389 kts | 33° |
| 2026-04-26 18:42 | 56.30104 | -3.55160 | 17858 ft | 394 kts | 32° |
| 2026-04-26 18:42 | 56.32335 | -3.52265 | 18552 ft | 397 kts | 32° |
| 2026-04-26 18:42 | 56.34596 | -3.49353 | 19149 ft | 401 kts | 32° |
| 2026-04-26 18:42 | 56.36878 | -3.46413 | 19739 ft | 405 kts | 32° |
| 2026-04-26 18:43 | 56.39180 | -3.43437 | 20316 ft | 409 kts | 32° |
| 2026-04-26 18:43 | 56.41498 | -3.40431 | 20938 ft | 412 kts | 32° |
| 2026-04-26 18:43 | 56.43802 | -3.37438 | 21511 ft | 415 kts | 32° |
| 2026-04-26 18:43 | 56.46172 | -3.34412 | 22058 ft | 419 kts | 31° |
| 2026-04-26 18:44 | 56.48591 | -3.31420 | 22599 ft | 423 kts | 30° |
| 2026-04-26 18:44 | 56.51038 | -3.28422 | 23161 ft | 426 kts | 30° |
| 2026-04-26 18:44 | 56.53505 | -3.25392 | 23728 ft | 430 kts | 30° |
| 2026-04-26 18:44 | 56.56000 | -3.22312 | 24057 ft | 438 kts | 30° |
| 2026-04-26 18:45 | 56.58532 | -3.19170 | 24429 ft | 443 kts | 30° |
| 2026-04-26 18:45 | 56.61075 | -3.16001 | 24912 ft | 445 kts | 31° |
| 2026-04-26 18:45 | 56.63630 | -3.12811 | 25381 ft | 447 kts | 31° |
| 2026-04-26 18:45 | 56.66157 | -3.09602 | 25794 ft | 452 kts | 34° |
| 2026-04-26 18:46 | 56.68474 | -3.05665 | 26169 ft | 461 kts | 47° |
| 2026-04-26 18:46 | 56.70359 | -3.00912 | 26585 ft | 467 kts | 58° |
| 2026-04-26 18:46 | 56.71748 | -2.95552 | 27004 ft | 470 kts | 68° |
| 2026-04-26 18:46 | 56.72933 | -2.89986 | 27398 ft | 473 kts | 69° |
| 2026-04-26 18:47 | 56.74085 | -2.84365 | 27821 ft | 475 kts | 69° |
| 2026-04-26 18:47 | 56.75237 | -2.78706 | 28217 ft | 478 kts | 69° |
| 2026-04-26 18:47 | 56.76402 | -2.73019 | 28574 ft | 481 kts | 69° |
| 2026-04-26 18:47 | 56.77586 | -2.67298 | 28918 ft | 484 kts | 69° |
| 2026-04-26 18:48 | 56.78770 | -2.61620 | 29276 ft | 487 kts | 69° |
| 2026-04-26 18:48 | 56.79982 | -2.55838 | 29629 ft | 489 kts | 69° |
| 2026-04-26 18:48 | 56.81201 | -2.50025 | 29973 ft | 492 kts | 69° |
| 2026-04-26 18:48 | 56.82425 | -2.44183 | 30341 ft | 494 kts | 69° |
| 2026-04-26 18:49 | 56.83656 | -2.38298 | 30599 ft | 497 kts | 69° |
| 2026-04-26 18:49 | 56.84889 | -2.32375 | 30834 ft | 500 kts | 69° |
| 2026-04-26 18:49 | 56.86125 | -2.26422 | 31131 ft | 501 kts | 69° |
| 2026-04-26 18:49 | 56.87360 | -2.20452 | 31404 ft | 503 kts | 69° |
| 2026-04-26 18:50 | 56.88596 | -2.14458 | 31662 ft | 505 kts | 69° |
| 2026-04-26 18:50 | 56.89833 | -2.08443 | 31999 ft | 505 kts | 69° |
| 2026-04-26 18:50 | 56.91048 | -2.02511 | 32373 ft | 504 kts | 69° |
| 2026-04-26 18:50 | 56.92274 | -1.96514 | 32744 ft | 503 kts | 69° |
| 2026-04-26 18:51 | 56.93496 | -1.90514 | 33063 ft | 503 kts | 69° |
| 2026-04-26 18:51 | 56.94715 | -1.84511 | 33383 ft | 504 kts | 69° |
| 2026-04-26 18:51 | 56.95934 | -1.78495 | 33707 ft | 503 kts | 69° |
| 2026-04-26 18:51 | 56.97147 | -1.72486 | 34048 ft | 502 kts | 69° |
| 2026-04-26 18:52 | 56.98356 | -1.66477 | 34347 ft | 502 kts | 69° |
| 2026-04-26 18:52 | 56.99563 | -1.60466 | 34612 ft | 502 kts | 69° |
| 2026-04-26 18:52 | 57.00764 | -1.54459 | 34913 ft | 501 kts | 69° |
| 2026-04-26 18:52 | 57.01944 | -1.48547 | 35220 ft | 499 kts | 69° |
| 2026-04-26 18:53 | 57.03134 | -1.42563 | 35517 ft | 498 kts | 69° |
| 2026-04-26 18:53 | 57.04318 | -1.36591 | 35783 ft | 498 kts | 69° |
| 2026-04-26 18:53 | 57.05498 | -1.30622 | 36047 ft | 497 kts | 69° |
| 2026-04-26 18:53 | 57.06673 | -1.24656 | 36331 ft | 496 kts | 69° |
| 2026-04-26 18:54 | 57.07843 | -1.18703 | 36613 ft | 495 kts | 69° |
| 2026-04-26 18:54 | 57.09007 | -1.12758 | 36896 ft | 493 kts | 69° |
| 2026-04-26 18:54 | 57.10150 | -1.06906 | 37190 ft | 492 kts | 69° |
| 2026-04-26 18:54 | 57.11301 | -1.00992 | 37477 ft | 491 kts | 69° |
| 2026-04-26 18:55 | 57.12448 | -0.95084 | 37724 ft | 490 kts | 69° |
| 2026-04-26 18:55 | 57.13591 | -0.89178 | 37950 ft | 490 kts | 69° |
| 2026-04-26 18:55 | 57.14730 | -0.83275 | 38196 ft | 489 kts | 69° |
| 2026-04-26 18:55 | 57.15864 | -0.77374 | 38427 ft | 488 kts | 69° |
| 2026-04-26 18:56 | 57.16994 | -0.71484 | 38666 ft | 488 kts | 69° |
| 2026-04-26 18:56 | 57.18122 | -0.65585 | 38875 ft | 487 kts | 69° |
| 2026-04-26 18:56 | 57.19244 | -0.59693 | 39035 ft | 487 kts | 70° |
| 2026-04-26 18:56 | 57.20364 | -0.53799 | 39190 ft | 487 kts | 70° |
| 2026-04-26 18:57 | 57.22222 | -0.43980 | 39263 ft | 490 kts | 70° |
| 2026-04-26 18:57 | 57.24813 | -0.30202 | 39270 ft | 487 kts | 70° |
| 2026-04-26 18:58 | 57.27014 | -0.18420 | 39271 ft | 484 kts | 70° |
| 2026-04-26 18:58 | 57.29195 | -0.06669 | 39268 ft | 482 kts | 70° |
| 2026-04-26 18:59 | 57.31340 | 0.04962 | 39279 ft | 480 kts | 70° |
| 2026-04-26 18:59 | 57.33486 | 0.16662 | 39279 ft | 480 kts | 70° |
| 2026-04-26 19:00 | 57.35618 | 0.28362 | 39288 ft | 480 kts | 70° |
| 2026-04-26 19:00 | 57.37744 | 0.40102 | 39287 ft | 481 kts | 70° |
| 2026-04-26 19:01 | 57.39850 | 0.51805 | 39298 ft | 483 kts | 70° |
| 2026-04-26 19:01 | 57.41966 | 0.63645 | 39292 ft | 485 kts | 70° |
| 2026-04-26 19:02 | 57.44079 | 0.75538 | 39296 ft | 486 kts | 70° |
| 2026-04-26 19:02 | 57.45831 | 0.85461 | 39295 ft | 487 kts | 70° |
| 2026-04-26 19:03 | 57.48289 | 0.99469 | 39299 ft | 488 kts | 71° |
| 2026-04-26 19:03 | 57.50367 | 1.11397 | 39299 ft | 489 kts | 71° |
| 2026-04-26 19:04 | 57.52449 | 1.23427 | 39306 ft | 488 kts | 71° |
| 2026-04-26 19:04 | 57.54517 | 1.35459 | 39305 ft | 488 kts | 71° |
| 2026-04-26 19:05 | 57.57590 | 1.53486 | 39311 ft | 486 kts | 71° |
| 2026-04-26 19:06 | 57.59604 | 1.65399 | 39304 ft | 485 kts | 71° |
| 2026-04-26 19:06 | 57.61616 | 1.77378 | 39315 ft | 483 kts | 71° |
| 2026-04-26 19:07 | 57.63611 | 1.89341 | 39317 ft | 482 kts | 71° |
| 2026-04-26 19:07 | 57.65591 | 2.01292 | 39329 ft | 481 kts | 71° |
| 2026-04-26 19:08 | 57.67542 | 2.13151 | 39315 ft | 480 kts | 71° |
| 2026-04-26 19:08 | 57.69492 | 2.25077 | 39318 ft | 480 kts | 71° |
| 2026-04-26 19:09 | 57.71427 | 2.36999 | 39317 ft | 479 kts | 71° |
| 2026-04-26 19:09 | 57.73349 | 2.48925 | 39328 ft | 478 kts | 71° |
| 2026-04-26 19:10 | 57.75260 | 2.60856 | 39316 ft | 478 kts | 71° |
| 2026-04-26 19:10 | 57.77157 | 2.72787 | 39334 ft | 478 kts | 71° |
| 2026-04-26 19:11 | 57.79030 | 2.84650 | 39337 ft | 478 kts | 72° |
| 2026-04-26 19:11 | 57.80906 | 2.96615 | 39330 ft | 478 kts | 72° |
| 2026-04-26 19:12 | 57.82770 | 3.08589 | 39344 ft | 478 kts | 72° |
| 2026-04-26 19:12 | 57.84625 | 3.20587 | 39331 ft | 479 kts | 72° |
| 2026-04-26 19:13 | 57.86455 | 3.32510 | 39332 ft | 479 kts | 72° |
| 2026-04-26 19:13 | 57.88290 | 3.44547 | 39354 ft | 479 kts | 72° |
| 2026-04-26 19:14 | 57.90100 | 3.56614 | 39338 ft | 480 kts | 75° |
| 2026-04-26 19:14 | 57.90700 | 3.69119 | 39342 ft | 483 kts | 91° |
| 2026-04-26 19:15 | 57.90327 | 3.81733 | 39338 ft | 484 kts | 92° |
| 2026-04-26 19:15 | 57.89919 | 3.94287 | 39336 ft | 484 kts | 92° |
| 2026-04-26 19:16 | 57.89543 | 4.06941 | 39330 ft | 485 kts | 92° |
| 2026-04-26 19:16 | 57.89183 | 4.19590 | 39332 ft | 485 kts | 92° |
| 2026-04-26 19:17 | 57.88817 | 4.32255 | 39334 ft | 486 kts | 92° |
| 2026-04-26 19:17 | 57.88436 | 4.44937 | 39327 ft | 486 kts | 92° |
| 2026-04-26 19:18 | 57.88043 | 4.57542 | 39327 ft | 486 kts | 92° |
| 2026-04-26 19:18 | 57.87634 | 4.70227 | 39325 ft | 486 kts | 92° |
| 2026-04-26 19:19 | 57.87213 | 4.82906 | 39325 ft | 486 kts | 92° |
| 2026-04-26 19:19 | 57.86779 | 4.95586 | 39325 ft | 487 kts | 92° |
| 2026-04-26 19:20 | 57.86334 | 5.08197 | 39318 ft | 487 kts | 92° |
| 2026-04-26 19:20 | 57.85875 | 5.20870 | 39322 ft | 486 kts | 92° |
| 2026-04-26 19:21 | 57.85403 | 5.33542 | 39322 ft | 486 kts | 92° |
| 2026-04-26 19:21 | 57.84919 | 5.46196 | 39310 ft | 486 kts | 92° |
| 2026-04-26 19:22 | 57.84426 | 5.58767 | 39313 ft | 486 kts | 93° |
| 2026-04-26 19:22 | 57.83917 | 5.71394 | 39304 ft | 485 kts | 93° |
| 2026-04-26 19:23 | 57.83396 | 5.84028 | 39305 ft | 485 kts | 93° |
| 2026-04-26 19:23 | 57.82862 | 5.96658 | 39301 ft | 485 kts | 93° |
| 2026-04-26 19:24 | 57.82320 | 6.09183 | 39307 ft | 485 kts | 93° |
| 2026-04-26 19:24 | 57.81478 | 6.28100 | 39296 ft | 485 kts | 93° |
| 2026-04-26 19:25 | 57.81000 | 6.38576 | 39289 ft | 485 kts | 93° |
| 2026-04-26 19:25 | 57.80312 | 6.53299 | 39288 ft | 485 kts | 93° |
| 2026-04-26 19:26 | 57.79714 | 6.65810 | 39276 ft | 485 kts | 93° |
| 2026-04-26 19:26 | 57.79100 | 6.78395 | 39286 ft | 485 kts | 93° |
| 2026-04-26 19:27 | 57.78474 | 6.90970 | 39268 ft | 485 kts | 93° |
| 2026-04-26 19:27 | 57.77835 | 7.03542 | 39269 ft | 485 kts | 93° |
| 2026-04-26 19:28 | 57.77184 | 7.16105 | 39260 ft | 484 kts | 94° |
| 2026-04-26 19:28 | 57.76526 | 7.28568 | 39261 ft | 484 kts | 94° |
| 2026-04-26 19:29 | 57.75851 | 7.41115 | 39256 ft | 484 kts | 93° |
| 2026-04-26 19:29 | 57.75163 | 7.53660 | 39251 ft | 484 kts | 94° |
| 2026-04-26 19:30 | 57.74463 | 7.66189 | 39250 ft | 484 kts | 94° |
| 2026-04-26 19:30 | 57.73872 | 7.76604 | 39251 ft | 484 kts | 94° |
| 2026-04-26 19:31 | 57.73031 | 7.91159 | 39258 ft | 484 kts | 94° |
| 2026-04-26 19:31 | 57.72294 | 8.03690 | 39249 ft | 484 kts | 94° |
| 2026-04-26 19:32 | 57.71545 | 8.16207 | 39247 ft | 484 kts | 94° |
| 2026-04-26 19:32 | 57.70783 | 8.28727 | 39247 ft | 484 kts | 94° |
| 2026-04-26 19:33 | 57.70014 | 8.41151 | 39244 ft | 484 kts | 94° |
| 2026-04-26 19:33 | 57.69236 | 8.53488 | 39245 ft | 466 kts | 94° |
| 2026-04-26 19:34 | 57.68483 | 8.65291 | 39240 ft | 454 kts | 94° |
| 2026-04-26 19:34 | 57.67727 | 8.77034 | 39267 ft | 458 kts | 94° |
| 2026-04-26 19:35 | 57.66456 | 8.88817 | 39262 ft | 466 kts | 103° |
| 2026-04-26 19:35 | 57.64690 | 9.00503 | 39256 ft | 468 kts | 104° |
| 2026-04-26 19:36 | 57.63201 | 9.10228 | 39267 ft | 469 kts | 104° |
| 2026-04-26 19:36 | 57.62040 | 9.17956 | 39092 ft | 465 kts | 103° |
| 2026-04-26 19:36 | 57.61173 | 9.23791 | 38447 ft | 471 kts | 103° |
| 2026-04-26 19:37 | 57.60293 | 9.29755 | 37810 ft | 482 kts | 103° |
| 2026-04-26 19:37 | 57.59398 | 9.35822 | 37168 ft | 490 kts | 103° |
| 2026-04-26 19:37 | 57.58487 | 9.41966 | 36526 ft | 492 kts | 103° |
| 2026-04-26 19:37 | 57.57571 | 9.48114 | 35894 ft | 492 kts | 104° |
| 2026-04-26 19:38 | 57.56652 | 9.54247 | 35290 ft | 491 kts | 104° |
| 2026-04-26 19:38 | 57.55732 | 9.60364 | 34671 ft | 490 kts | 104° |
| 2026-04-26 19:38 | 57.54811 | 9.66466 | 34075 ft | 490 kts | 104° |
| 2026-04-26 19:38 | 57.53888 | 9.72562 | 33388 ft | 488 kts | 104° |
| 2026-04-26 19:39 | 57.52976 | 9.78559 | 32740 ft | 487 kts | 104° |
| 2026-04-26 19:39 | 57.52050 | 9.84626 | 32094 ft | 489 kts | 104° |
| 2026-04-26 19:39 | 57.51115 | 9.90733 | 31488 ft | 491 kts | 104° |
| 2026-04-26 19:39 | 57.50193 | 9.96727 | 31237 ft | 473 kts | 104° |
| 2026-04-26 19:40 | 57.49297 | 10.02520 | 30851 ft | 461 kts | 104° |
| 2026-04-26 19:40 | 57.48417 | 10.08198 | 30268 ft | 455 kts | 104° |
| 2026-04-26 19:40 | 57.47543 | 10.13835 | 29485 ft | 451 kts | 104° |
| 2026-04-26 19:40 | 57.46675 | 10.19413 | 28690 ft | 448 kts | 104° |
| 2026-04-26 19:41 | 57.45802 | 10.25009 | 27455 ft | 456 kts | 104° |
| 2026-04-26 19:41 | 57.44912 | 10.30695 | 26456 ft | 459 kts | 104° |
| 2026-04-26 19:41 | 57.44015 | 10.36402 | 25464 ft | 461 kts | 104° |
| 2026-04-26 19:41 | 57.43723 | 10.38252 | 25149 ft | 461 kts | 104° |
| 2026-04-26 19:42 | 57.42209 | 10.47818 | 23524 ft | 461 kts | 104° |
| 2026-04-26 19:42 | 57.41303 | 10.53517 | 22433 ft | 459 kts | 104° |
| 2026-04-26 19:42 | 57.40398 | 10.59193 | 21389 ft | 460 kts | 104° |
| 2026-04-26 19:42 | 57.39489 | 10.64872 | 20768 ft | 456 kts | 104° |
| 2026-04-26 19:43 | 57.38605 | 10.70373 | 20319 ft | 445 kts | 104° |
| 2026-04-26 19:43 | 57.37729 | 10.75808 | 19589 ft | 437 kts | 104° |
| 2026-04-26 19:43 | 57.36864 | 10.81181 | 18714 ft | 435 kts | 104° |
| 2026-04-26 19:43 | 57.35998 | 10.86539 | 17846 ft | 432 kts | 104° |
| 2026-04-26 19:44 | 57.35140 | 10.91809 | 17400 ft | 418 kts | 104° |
| 2026-04-26 19:44 | 57.34549 | 10.96925 | 17102 ft | 395 kts | 90° |
| 2026-04-26 19:44 | 57.34640 | 11.01850 | 16843 ft | 374 kts | 77° |
| 2026-04-26 19:44 | 57.35207 | 11.06460 | 16483 ft | 362 kts | 64° |
| 2026-04-26 19:45 | 57.36153 | 11.10714 | 16103 ft | 355 kts | 61° |
| 2026-04-26 19:45 | 57.37126 | 11.14893 | 15703 ft | 352 kts | 61° |
| 2026-04-26 19:45 | 57.38086 | 11.19042 | 15314 ft | 349 kts | 61° |
| 2026-04-26 19:45 | 57.39020 | 11.23117 | 14928 ft | 347 kts | 61° |
| 2026-04-26 19:46 | 57.39951 | 11.27222 | 14547 ft | 344 kts | 62° |
| 2026-04-26 19:46 | 57.40871 | 11.31305 | 14162 ft | 342 kts | 62° |
| 2026-04-26 19:46 | 57.41783 | 11.35370 | 13777 ft | 340 kts | 62° |
| 2026-04-26 19:46 | 57.42686 | 11.39406 | 13345 ft | 338 kts | 62° |
| 2026-04-26 19:47 | 57.43577 | 11.43405 | 13034 ft | 332 kts | 62° |
| 2026-04-26 19:47 | 57.43862 | 11.44687 | 12930 ft | 330 kts | 62° |
| 2026-04-26 19:47 | 57.45317 | 11.51234 | 12449 ft | 326 kts | 62° |
| 2026-04-26 19:47 | 57.46183 | 11.55131 | 12181 ft | 326 kts | 62° |
| 2026-04-26 19:48 | 57.47048 | 11.59029 | 11903 ft | 326 kts | 62° |
| 2026-04-26 19:48 | 57.48135 | 11.62588 | 11607 ft | 317 kts | 43° |
| 2026-04-26 19:48 | 57.49840 | 11.65004 | 11361 ft | 303 kts | 19° |
| 2026-04-26 19:48 | 57.51838 | 11.65811 | 11186 ft | 290 kts | 355° |
| 2026-04-26 19:49 | 57.53803 | 11.65321 | 11096 ft | 281 kts | 346° |
| 2026-04-26 19:49 | 57.55708 | 11.64579 | 11096 ft | 280 kts | 345° |
| 2026-04-26 19:49 | 57.57598 | 11.63802 | 11027 ft | 276 kts | 345° |
| 2026-04-26 19:49 | 57.59460 | 11.63028 | 10755 ft | 272 kts | 345° |
| 2026-04-26 19:50 | 57.61289 | 11.62264 | 10507 ft | 267 kts | 345° |
| 2026-04-26 19:50 | 57.63084 | 11.61515 | 10324 ft | 260 kts | 345° |
| 2026-04-26 19:50 | 57.64812 | 11.60798 | 10271 ft | 249 kts | 345° |
| 2026-04-26 19:50 | 57.66463 | 11.60118 | 10250 ft | 237 kts | 345° |
| 2026-04-26 19:51 | 57.68019 | 11.59482 | 10260 ft | 230 kts | 345° |
| 2026-04-26 19:51 | 57.69610 | 11.59474 | 10254 ft | 236 kts | 15° |
| 2026-04-26 19:51 | 57.71037 | 11.61121 | 10267 ft | 250 kts | 37° |
| 2026-04-26 19:51 | 57.72109 | 11.63759 | 10271 ft | 262 kts | 59° |
| 2026-04-26 19:52 | 57.72565 | 11.67106 | 10271 ft | 273 kts | 84° |
| 2026-04-26 19:52 | 57.72195 | 11.70625 | 10259 ft | 282 kts | 114° |
| 2026-04-26 19:52 | 57.70969 | 11.73468 | 10265 ft | 284 kts | 143° |
| 2026-04-26 19:52 | 57.69245 | 11.75198 | 10283 ft | 281 kts | 160° |
| 2026-04-26 19:53 | 57.67419 | 11.76512 | 10261 ft | 281 kts | 161° |
| 2026-04-26 19:53 | 57.65582 | 11.77781 | 10257 ft | 281 kts | 161° |
| 2026-04-26 19:53 | 57.63752 | 11.79059 | 10247 ft | 280 kts | 161° |
| 2026-04-26 19:53 | 57.61931 | 11.80355 | 10265 ft | 279 kts | 161° |
| 2026-04-26 19:54 | 57.60139 | 11.81649 | 10246 ft | 273 kts | 161° |
| 2026-04-26 19:54 | 57.58388 | 11.82919 | 10248 ft | 267 kts | 161° |
| 2026-04-26 19:54 | 57.56690 | 11.84151 | 10229 ft | 264 kts | 161° |
| 2026-04-26 19:54 | 57.54957 | 11.85186 | 10015 ft | 259 kts | 177° |
| 2026-04-26 19:55 | 57.53218 | 11.84800 | 9672 ft | 249 kts | 210° |
| 2026-04-26 19:55 | 57.51787 | 11.83127 | 9412 ft | 241 kts | 223° |
| 2026-04-26 19:55 | 57.50471 | 11.81214 | 9141 ft | 240 kts | 224° |
| 2026-04-26 19:55 | 57.49172 | 11.79273 | 8871 ft | 239 kts | 224° |
| 2026-04-26 19:56 | 57.47885 | 11.77329 | 8620 ft | 238 kts | 225° |
| 2026-04-26 19:56 | 57.46605 | 11.75378 | 8363 ft | 238 kts | 225° |
| 2026-04-26 19:56 | 57.45335 | 11.73424 | 8114 ft | 237 kts | 224° |
| 2026-04-26 19:56 | 57.44075 | 11.71468 | 7875 ft | 236 kts | 225° |
| 2026-04-26 19:57 | 57.42785 | 11.69593 | 7619 ft | 238 kts | 212° |
| 2026-04-26 19:57 | 57.41199 | 11.68832 | 7347 ft | 244 kts | 179° |
| 2026-04-26 19:57 | 57.39596 | 11.69714 | 7106 ft | 243 kts | 145° |
| 2026-04-26 19:57 | 57.38484 | 11.71965 | 6862 ft | 236 kts | 112° |
| 2026-04-26 19:58 | 57.37983 | 11.74817 | 6655 ft | 231 kts | 101° |
| 2026-04-26 19:58 | 57.37597 | 11.77734 | 6249 ft | 236 kts | 100° |
| 2026-04-26 19:58 | 57.37221 | 11.80711 | 5938 ft | 233 kts | 100° |
| 2026-04-26 19:58 | 57.36868 | 11.83597 | 5646 ft | 231 kts | 99° |
| 2026-04-26 19:59 | 57.36881 | 11.86541 | 5383 ft | 225 kts | 69° |
| 2026-04-26 19:59 | 57.37597 | 11.89027 | 5247 ft | 215 kts | 54° |
| 2026-04-26 19:59 | 57.38414 | 11.91323 | 5087 ft | 212 kts | 54° |
| 2026-04-26 19:59 | 57.39213 | 11.93558 | 4979 ft | 202 kts | 54° |
| 2026-04-26 20:00 | 57.39963 | 11.95658 | 4897 ft | 191 kts | 54° |
| 2026-04-26 20:00 | 57.40693 | 11.97706 | 4844 ft | 190 kts | 54° |
| 2026-04-26 20:00 | 57.41399 | 11.99689 | 4800 ft | 182 kts | 54° |
| 2026-04-26 20:00 | 57.42084 | 12.01575 | 4727 ft | 171 kts | 47° |
| 2026-04-26 20:01 | 57.42871 | 12.03191 | 4672 ft | 167 kts | 45° |
| 2026-04-26 20:01 | 57.43641 | 12.04807 | 4623 ft | 167 kts | 45° |
| 2026-04-26 20:01 | 57.44397 | 12.06427 | 4565 ft | 166 kts | 46° |
| 2026-04-26 20:01 | 57.45146 | 12.08056 | 4516 ft | 166 kts | 46° |
| 2026-04-26 20:02 | 57.45967 | 12.09514 | 4439 ft | 162 kts | 24° |
| 2026-04-26 20:02 | 57.46990 | 12.10334 | 4415 ft | 160 kts | 23° |
| 2026-04-26 20:02 | 57.47999 | 12.11259 | 4316 ft | 166 kts | 24° |
| 2026-04-26 20:02 | 57.48339 | 12.11574 | 4250 ft | 169 kts | 24° |
| 2026-04-26 20:03 | 57.49757 | 12.12881 | 3963 ft | 174 kts | 24° |
| 2026-04-26 20:03 | 57.50857 | 12.13888 | 3711 ft | 178 kts | 24° |
| 2026-04-26 20:03 | 57.51966 | 12.14904 | 3458 ft | 177 kts | 24° |
| 2026-04-26 20:03 | 57.53422 | 12.16235 | 3129 ft | 175 kts | 24° |
| 2026-04-26 20:04 | 57.54517 | 12.17235 | 2892 ft | 176 kts | 24° |
| 2026-04-26 20:04 | 57.55615 | 12.18239 | 2641 ft | 176 kts | 24° |
| 2026-04-26 20:04 | 57.56713 | 12.19241 | 2398 ft | 175 kts | 24° |
| 2026-04-26 20:04 | 57.57432 | 12.19899 | 2239 ft | 172 kts | 23° |
| 2026-04-26 20:05 | 57.58476 | 12.20853 | 2008 ft | 160 kts | 23° |
| 2026-04-26 20:05 | 57.59425 | 12.21722 | 1777 ft | 146 kts | 22° |
| 2026-04-26 20:05 | 57.60324 | 12.22540 | 1580 ft | 142 kts | 23° |
| 2026-04-26 20:05 | 57.61214 | 12.23352 | 1379 ft | 143 kts | 23° |
| 2026-04-26 20:06 | 57.62118 | 12.24176 | 1181 ft | 146 kts | 24° |
| 2026-04-26 20:06 | 57.63031 | 12.25011 | 962 ft | 146 kts | 24° |
| 2026-04-26 20:06 | 57.63941 | 12.25847 | 767 ft | 147 kts | 25° |
| 2026-04-26 20:06 | 57.64849 | 12.26673 | 577 ft | 144 kts | 24° |
| 2026-04-26 20:07 | 57.65682 | 12.27429 | 511 ft | 113 kts | 26° |
| 2026-04-26 20:07 | 57.66192 | 12.27895 | 515 ft | 49 kts | 26° |
| 2026-04-26 20:07 | 57.66481 | 12.28156 | 522 ft | 43 kts | 26° |
| 2026-04-26 20:07 | 57.66666 | 12.28440 | 523 ft | 28 kts | 52° |
| 2026-04-26 20:08 | 57.66740 | 12.28641 | 524 ft | 13 kts | 56° |
| 2026-04-26 20:08 | 57.66756 | 12.28683 | 524 ft | 0 kts | 55° |
| 2026-04-26 20:08 | 57.66756 | 12.28684 | 524 ft | 0 kts | 55° |
| 2026-04-26 20:08 | 57.66758 | 12.28688 | 524 ft | 0 kts | 55° |
| 2026-04-26 20:09 | 57.66759 | 12.28692 | 524 ft | 0 kts | 55° |
| 2026-04-26 20:09 | 57.66760 | 12.28695 | 524 ft | 0 kts | 55° |
| 2026-04-26 20:09 | 57.66765 | 12.28709 | 524 ft | 4 kts | 55° |
| 2026-04-26 20:09 | 57.66802 | 12.28795 | 524 ft | 12 kts | 43° |
| 2026-04-26 20:10 | 57.66826 | 12.28896 | 525 ft | 7 kts | 104° |
| 2026-04-26 20:10 | 57.66817 | 12.28931 | 525 ft | 0 kts | 116° |
| 2026-04-26 20:11 | 57.66816 | 12.28936 | 525 ft | 0 kts | 116° |
| 2026-04-26 20:11 | 57.66808 | 12.28951 | 525 ft | 3 kts | 147° |
| 2026-04-26 20:12 | 57.66732 | 12.28901 | 524 ft | 7 kts | 206° |
| 2026-04-26 20:12 | 57.66685 | 12.28856 | 524 ft | 8 kts | 206° |
| 2026-04-26 20:12 | 57.66635 | 12.28871 | 523 ft | 8 kts | 135° |
| 2026-04-26 20:12 | 57.66611 | 12.28955 | 523 ft | 6 kts | 117° |
| 2026-04-26 20:13 | 57.66575 | 12.28976 | 523 ft | 6 kts | 191° |
| 2026-04-26 20:13 | 57.66557 | 12.28961 | 523 ft | 3 kts | 205° |
| 2026-04-26 20:13 | 57.66534 | 12.28957 | 523 ft | 3 kts | 170° |
| 2026-04-26 20:13 | 57.66529 | 12.28978 | 523 ft | 2 kts | 91° |
| 2026-04-26 20:14 | 57.66531 | 12.29027 | 523 ft | 7 kts | 103° |
| 2026-04-26 20:14 | 57.66517 | 12.29088 | 523 ft | 3 kts | 116° |
| 2026-04-26 20:14 | 57.66514 | 12.29100 | 523 ft | 0 kts | 116° |